San Bernardino, CA (92408)

1:03 PM PST on December 17, 2014 (GMT -0800)
Loma Linda RF | Change Station
CLOSE
Current Station
Personal Weather Station
Location: Loma Linda, CA
Elevation: 1160 ft
Nearby Weather Stations
Active Advisory: Flash Flood Watch

Elev 1160 ft 34.05 °N, 117.26 °W | Updated 3 minutes ago

Mostly Cloudy
Mostly Cloudy
59.8 °F
Feels Like 59.8 °F
N
0.4
Wind Variable Wind from West
Gusts 0.9 mph

Today
High -- | Low -- °F
--% Chance of Precip.
Yesterday
High -- | Low -- °F
Precip. -- in
6:48 AM 4:42 PM
Waning Crescent, 20% visible
Pressure 30.04 in
Visibility 7.0 miles
Clouds Scattered Clouds 3000 ft
Mostly Cloudy 6000 ft
Dew Point 50 °F
Humidity 69%
Rainfall 0.00 in
Snow Depth Not available.
UV 2 out of 12
Pollen .90 out of 12
Air Quality Not available.
Flu Activity Not available.
METAR KSBD 172050Z 00000KT 7SM SCT030 BKN060 13/07 A3004

More Conditions Fewer Conditions

Pressure 30.04 in
Visibility 7.0 miles
Clouds Scattered Clouds 3000 ft
Mostly Cloudy 6000 ft
Dew Point 50 °F
Humidity 69%
Rainfall 0.00 in
Snow Depth Not available.
UV 2 out of 12
Pollen .90 out of 12
Air Quality Not available.
Flu Activity Not available.
METAR KSBD 172050Z 00000KT 7SM SCT030 BKN060 13/07 A3004

More Conditions Fewer Conditions

10-Day Weather Forecast

Almanac

Astronomy

Dec. 17, 2014 Rise Set
Actual Time
Civil Twilight
Nautical Twilight
Astronomical Twilight
Moon
Length of Visible Light
Length of Day
Tomorrow will be .
, % of the Moon is Illuminated

Today's Extremes

State Highs State Lows

Community

WunderPhotos

Upload Photos

1,778,803 photos uploaded!

WunderBlogs® & News

Nearby

Air Quality

  Air Quality AQ Index Pollutant
Not available.

Snow Depth

Station Depth Elevation

Earthquake Activity

City Distance Mag. Time & Date
Minimum magnitude displayed is 2.5.

Coastal Water Temperatures

Place Temperature

Nearby Weather Stations